sensor_id;sensor_type;location;lat;lon;timestamp;P1;durP1;ratioP1;P2;durP2;ratioP2
59770;SDS011;45649;53.014;6.600;2023-02-28T00:02:19;7.27;;;4.00;;
59770;SDS011;45649;53.014;6.600;2023-02-28T00:04:45;5.57;;;3.60;;
59770;SDS011;45649;53.014;6.600;2023-02-28T00:07:26;6.90;;;3.23;;
59770;SDS011;45649;53.014;6.600;2023-02-28T00:09:52;3.73;;;3.20;;
59770;SDS011;45649;53.014;6.600;2023-02-28T00:12:18;6.20;;;3.20;;
59770;SDS011;45649;53.014;6.600;2023-02-28T00:14:45;7.43;;;3.73;;
59770;SDS011;45649;53.014;6.600;2023-02-28T00:17:11;5.13;;;3.60;;
59770;SDS011;45649;53.014;6.600;2023-02-28T00:19:37;4.00;;;3.20;;
59770;SDS011;45649;53.014;6.600;2023-02-28T00:22:03;4.67;;;3.40;;
59770;SDS011;45649;53.014;6.600;2023-02-28T00:24:29;8.20;;;3.80;;
59770;SDS011;45649;53.014;6.600;2023-02-28T00:26:55;8.30;;;5.00;;
59770;SDS011;45649;53.014;6.600;2023-02-28T00:29:21;8.00;;;5.97;;
59770;SDS011;45649;53.014;6.600;2023-02-28T00:31:47;9.50;;;6.97;;
59770;SDS011;45649;53.014;6.600;2023-02-28T00:34:13;5.73;;;4.43;;
59770;SDS011;45649;53.014;6.600;2023-02-28T00:36:40;4.77;;;3.93;;
59770;SDS011;45649;53.014;6.600;2023-02-28T00:39:10;6.40;;;3.90;;
59770;SDS011;45649;53.014;6.600;2023-02-28T00:41:36;5.93;;;3.73;;
59770;SDS011;45649;53.014;6.600;2023-02-28T00:44:02;8.57;;;4.73;;
59770;SDS011;45649;53.014;6.600;2023-02-28T00:46:28;5.23;;;4.00;;
59770;SDS011;45649;53.014;6.600;2023-02-28T00:48:54;7.40;;;4.07;;
59770;SDS011;45649;53.014;6.600;2023-02-28T00:51:21;6.60;;;4.07;;
59770;SDS011;45649;53.014;6.600;2023-02-28T00:53:47;6.87;;;4.30;;
59770;SDS011;45649;53.014;6.600;2023-02-28T00:56:13;8.70;;;5.40;;
59770;SDS011;45649;53.014;6.600;2023-02-28T00:58:39;8.80;;;5.10;;
59770;SDS011;45649;53.014;6.600;2023-02-28T01:01:05;8.53;;;5.13;;
59770;SDS011;45649;53.014;6.600;2023-02-28T01:03:32;7.97;;;5.10;;
59770;SDS011;45649;53.014;6.600;2023-02-28T01:05:58;8.60;;;5.67;;
59770;SDS011;45649;53.014;6.600;2023-02-28T01:08:24;7.83;;;5.40;;
59770;SDS011;45649;53.014;6.600;2023-02-28T01:10:51;5.47;;;4.90;;
59770;SDS011;45649;53.014;6.600;2023-02-28T01:13:18;8.80;;;4.73;;
59770;SDS011;45649;53.014;6.600;2023-02-28T01:15:55;7.17;;;4.90;;
59770;SDS011;45649;53.014;6.600;2023-02-28T01:18:22;5.70;;;4.47;;
59770;SDS011;45649;53.014;6.600;2023-02-28T01:20:49;7.50;;;4.10;;
59770;SDS011;45649;53.014;6.600;2023-02-28T01:23:17;9.03;;;3.30;;
59770;SDS011;45649;53.014;6.600;2023-02-28T01:25:43;5.70;;;3.43;;
59770;SDS011;45649;53.014;6.600;2023-02-28T01:28:10;4.90;;;3.80;;
59770;SDS011;45649;53.014;6.600;2023-02-28T01:30:36;6.83;;;3.97;;
59770;SDS011;45649;53.014;6.600;2023-02-28T01:33:02;5.63;;;4.07;;
59770;SDS011;45649;53.014;6.600;2023-02-28T01:35:28;5.47;;;3.60;;
59770;SDS011;45649;53.014;6.600;2023-02-28T01:37:54;8.03;;;4.33;;
59770;SDS011;45649;53.014;6.600;2023-02-28T01:40:20;7.63;;;4.17;;
59770;SDS011;45649;53.014;6.600;2023-02-28T01:42:46;5.67;;;3.70;;
59770;SDS011;45649;53.014;6.600;2023-02-28T01:47:48;6.63;;;3.90;;
59770;SDS011;45649;53.014;6.600;2023-02-28T01:50:18;6.43;;;4.20;;
59770;SDS011;45649;53.014;6.600;2023-02-28T01:52:45;5.83;;;3.93;;
59770;SDS011;45649;53.014;6.600;2023-02-28T01:55:12;9.10;;;4.37;;
59770;SDS011;45649;53.014;6.600;2023-02-28T01:57:40;4.87;;;3.80;;
59770;SDS011;45649;53.014;6.600;2023-02-28T02:00:08;9.27;;;4.73;;
59770;SDS011;45649;53.014;6.600;2023-02-28T02:02:38;8.47;;;4.17;;
59770;SDS011;45649;53.014;6.600;2023-02-28T02:07:37;7.60;;;4.43;;
59770;SDS011;45649;53.014;6.600;2023-02-28T02:15:26;6.20;;;4.27;;
59770;SDS011;45649;53.014;6.600;2023-02-28T02:17:56;5.47;;;4.37;;
59770;SDS011;45649;53.014;6.600;2023-02-28T02:25:28;5.83;;;4.60;;
59770;SDS011;45649;53.014;6.600;2023-02-28T02:33:03;6.73;;;5.00;;
59770;SDS011;45649;53.014;6.600;2023-02-28T02:38:17;5.90;;;5.07;;
59770;SDS011;45649;53.014;6.600;2023-02-28T02:43:44;11.33;;;5.90;;
59770;SDS011;45649;53.014;6.600;2023-02-28T02:46:14;8.80;;;6.10;;
59770;SDS011;45649;53.014;6.600;2023-02-28T02:48:42;7.13;;;6.00;;
59770;SDS011;45649;53.014;6.600;2023-02-28T02:51:16;6.80;;;5.83;;
59770;SDS011;45649;53.014;6.600;2023-02-28T02:54:29;8.83;;;5.67;;
59770;SDS011;45649;53.014;6.600;2023-02-28T02:56:29;11.00;;;5.93;;
59770;SDS011;45649;53.014;6.600;2023-02-28T02:58:59;7.07;;;6.07;;
59770;SDS011;45649;53.014;6.600;2023-02-28T03:04:04;8.80;;;6.10;;
59770;SDS011;45649;53.014;6.600;2023-02-28T03:06:31;9.37;;;5.67;;
59770;SDS011;45649;53.014;6.600;2023-02-28T03:08:57;9.17;;;6.67;;
59770;SDS011;45649;53.014;6.600;2023-02-28T03:11:25;6.60;;;5.40;;
59770;SDS011;45649;53.014;6.600;2023-02-28T03:21:34;5.57;;;5.03;;
59770;SDS011;45649;53.014;6.600;2023-02-28T03:26:31;6.83;;;4.57;;
59770;SDS011;45649;53.014;6.600;2023-02-28T03:29:08;5.37;;;4.67;;
59770;SDS011;45649;53.014;6.600;2023-02-28T03:31:41;5.77;;;5.00;;
59770;SDS011;45649;53.014;6.600;2023-02-28T03:34:10;6.33;;;5.00;;
59770;SDS011;45649;53.014;6.600;2023-02-28T03:36:38;6.43;;;5.17;;
59770;SDS011;45649;53.014;6.600;2023-02-28T03:40:10;5.60;;;5.00;;
59770;SDS011;45649;53.014;6.600;2023-02-28T03:42:06;5.83;;;5.37;;
59770;SDS011;45649;53.014;6.600;2023-02-28T03:44:44;6.23;;;5.13;;
59770;SDS011;45649;53.014;6.600;2023-02-28T03:47:16;7.87;;;5.40;;
59770;SDS011;45649;53.014;6.600;2023-02-28T03:49:48;7.10;;;5.70;;
59770;SDS011;45649;53.014;6.600;2023-02-28T03:52:14;7.27;;;5.50;;
59770;SDS011;45649;53.014;6.600;2023-02-28T03:54:44;6.93;;;5.40;;
59770;SDS011;45649;53.014;6.600;2023-02-28T03:59:57;7.93;;;5.33;;
59770;SDS011;45649;53.014;6.600;2023-02-28T04:02:25;6.70;;;5.13;;
59770;SDS011;45649;53.014;6.600;2023-02-28T04:04:51;6.20;;;5.60;;
59770;SDS011;45649;53.014;6.600;2023-02-28T04:07:17;6.67;;;5.90;;
59770;SDS011;45649;53.014;6.600;2023-02-28T04:09:43;7.33;;;5.70;;
59770;SDS011;45649;53.014;6.600;2023-02-28T04:12:09;9.27;;;5.73;;
59770;SDS011;45649;53.014;6.600;2023-02-28T04:14:36;10.17;;;6.27;;
59770;SDS011;45649;53.014;6.600;2023-02-28T04:17:02;7.63;;;6.10;;
59770;SDS011;45649;53.014;6.600;2023-02-28T04:19:28;6.63;;;5.60;;
59770;SDS011;45649;53.014;6.600;2023-02-28T04:21:54;7.53;;;6.17;;
59770;SDS011;45649;53.014;6.600;2023-02-28T04:24:21;6.70;;;6.00;;
59770;SDS011;45649;53.014;6.600;2023-02-28T04:26:48;8.40;;;6.67;;
59770;SDS011;45649;53.014;6.600;2023-02-28T04:29:33;7.60;;;6.83;;
59770;SDS011;45649;53.014;6.600;2023-02-28T04:31:59;8.37;;;6.57;;
59770;SDS011;45649;53.014;6.600;2023-02-28T04:34:26;9.87;;;6.93;;
59770;SDS011;45649;53.014;6.600;2023-02-28T04:36:53;8.47;;;7.17;;
59770;SDS011;45649;53.014;6.600;2023-02-28T04:39:20;7.63;;;6.73;;
59770;SDS011;45649;53.014;6.600;2023-02-28T04:41:46;7.97;;;6.40;;
59770;SDS011;45649;53.014;6.600;2023-02-28T04:44:12;9.63;;;7.40;;
59770;SDS011;45649;53.014;6.600;2023-02-28T04:46:38;9.13;;;6.87;;
59770;SDS011;45649;53.014;6.600;2023-02-28T04:49:04;9.13;;;6.93;;
59770;SDS011;45649;53.014;6.600;2023-02-28T04:51:30;11.10;;;7.93;;
59770;SDS011;45649;53.014;6.600;2023-02-28T04:53:57;9.40;;;8.30;;
59770;SDS011;45649;53.014;6.600;2023-02-28T04:56:23;9.90;;;8.33;;
59770;SDS011;45649;53.014;6.600;2023-02-28T04:58:49;8.97;;;8.07;;
59770;SDS011;45649;53.014;6.600;2023-02-28T05:01:25;10.07;;;8.23;;
59770;SDS011;45649;53.014;6.600;2023-02-28T05:03:52;10.73;;;8.87;;
59770;SDS011;45649;53.014;6.600;2023-02-28T05:06:21;9.40;;;8.60;;
59770;SDS011;45649;53.014;6.600;2023-02-28T05:08:48;10.43;;;8.90;;
59770;SDS011;45649;53.014;6.600;2023-02-28T05:11:16;10.97;;;8.87;;
59770;SDS011;45649;53.014;6.600;2023-02-28T05:13:42;10.50;;;9.40;;
59770;SDS011;45649;53.014;6.600;2023-02-28T05:16:08;9.83;;;8.83;;
59770;SDS011;45649;53.014;6.600;2023-02-28T05:18:35;10.77;;;9.67;;
59770;SDS011;45649;53.014;6.600;2023-02-28T05:21:01;10.50;;;9.30;;
59770;SDS011;45649;53.014;6.600;2023-02-28T05:23:28;11.53;;;9.73;;
59770;SDS011;45649;53.014;6.600;2023-02-28T05:25:54;10.60;;;9.53;;
59770;SDS011;45649;53.014;6.600;2023-02-28T05:28:20;10.27;;;9.17;;
59770;SDS011;45649;53.014;6.600;2023-02-28T05:30:46;12.80;;;11.48;;
59770;SDS011;45649;53.014;6.600;2023-02-28T05:33:12;11.90;;;10.43;;
59770;SDS011;45649;53.014;6.600;2023-02-28T05:35:39;12.87;;;11.20;;
59770;SDS011;45649;53.014;6.600;2023-02-28T05:38:05;13.90;;;10.63;;
59770;SDS011;45649;53.014;6.600;2023-02-28T05:40:31;12.27;;;10.50;;
59770;SDS011;45649;53.014;6.600;2023-02-28T05:42:57;12.53;;;9.00;;
59770;SDS011;45649;53.014;6.600;2023-02-28T05:45:23;15.63;;;10.93;;
59770;SDS011;45649;53.014;6.600;2023-02-28T05:47:53;11.63;;;10.17;;
59770;SDS011;45649;53.014;6.600;2023-02-28T05:50:19;12.33;;;10.83;;
59770;SDS011;45649;53.014;6.600;2023-02-28T05:52:49;12.00;;;10.33;;
59770;SDS011;45649;53.014;6.600;2023-02-28T05:55:15;13.73;;;10.97;;
59770;SDS011;45649;53.014;6.600;2023-02-28T05:57:41;13.33;;;10.50;;
59770;SDS011;45649;53.014;6.600;2023-02-28T06:00:07;12.67;;;10.70;;
59770;SDS011;45649;53.014;6.600;2023-02-28T06:02:33;13.50;;;11.00;;
59770;SDS011;45649;53.014;6.600;2023-02-28T06:05:00;12.73;;;11.07;;
59770;SDS011;45649;53.014;6.600;2023-02-28T06:07:26;14.17;;;11.00;;
59770;SDS011;45649;53.014;6.600;2023-02-28T06:09:52;13.03;;;10.60;;
59770;SDS011;45649;53.014;6.600;2023-02-28T06:12:18;14.90;;;12.37;;
59770;SDS011;45649;53.014;6.600;2023-02-28T06:14:44;12.67;;;10.80;;
59770;SDS011;45649;53.014;6.600;2023-02-28T06:17:10;13.70;;;10.90;;
59770;SDS011;45649;53.014;6.600;2023-02-28T06:19:37;15.80;;;11.80;;
59770;SDS011;45649;53.014;6.600;2023-02-28T06:22:04;12.57;;;11.00;;
59770;SDS011;45649;53.014;6.600;2023-02-28T06:24:30;14.83;;;11.77;;
59770;SDS011;45649;53.014;6.600;2023-02-28T06:26:56;15.57;;;11.50;;
59770;SDS011;45649;53.014;6.600;2023-02-28T06:29:30;13.47;;;11.40;;
59770;SDS011;45649;53.014;6.600;2023-02-28T06:31:56;14.27;;;12.03;;
59770;SDS011;45649;53.014;6.600;2023-02-28T06:34:22;16.50;;;11.77;;
59770;SDS011;45649;53.014;6.600;2023-02-28T06:36:50;16.10;;;11.17;;
59770;SDS011;45649;53.014;6.600;2023-02-28T06:39:16;14.10;;;11.93;;
59770;SDS011;45649;53.014;6.600;2023-02-28T06:41:43;14.60;;;11.77;;
59770;SDS011;45649;53.014;6.600;2023-02-28T06:44:20;17.60;;;11.10;;
59770;SDS011;45649;53.014;6.600;2023-02-28T06:46:46;14.00;;;10.97;;
59770;SDS011;45649;53.014;6.600;2023-02-28T06:49:13;14.07;;;11.10;;
59770;SDS011;45649;53.014;6.600;2023-02-28T06:51:40;15.90;;;11.33;;
59770;SDS011;45649;53.014;6.600;2023-02-28T06:54:07;16.27;;;11.37;;
59770;SDS011;45649;53.014;6.600;2023-02-28T06:56:36;13.63;;;11.10;;
59770;SDS011;45649;53.014;6.600;2023-02-28T06:59:02;14.03;;;11.50;;
59770;SDS011;45649;53.014;6.600;2023-02-28T07:01:28;14.00;;;11.13;;
59770;SDS011;45649;53.014;6.600;2023-02-28T07:03:56;13.40;;;11.67;;
59770;SDS011;45649;53.014;6.600;2023-02-28T07:06:23;14.37;;;11.10;;
59770;SDS011;45649;53.014;6.600;2023-02-28T07:08:50;12.33;;;11.03;;
59770;SDS011;45649;53.014;6.600;2023-02-28T07:11:17;13.73;;;11.20;;
59770;SDS011;45649;53.014;6.600;2023-02-28T07:13:43;13.63;;;11.60;;
59770;SDS011;45649;53.014;6.600;2023-02-28T07:16:10;14.20;;;11.90;;
59770;SDS011;45649;53.014;6.600;2023-02-28T07:18:36;13.73;;;12.03;;
59770;SDS011;45649;53.014;6.600;2023-02-28T07:21:03;13.30;;;11.93;;
59770;SDS011;45649;53.014;6.600;2023-02-28T07:23:31;14.77;;;11.67;;
59770;SDS011;45649;53.014;6.600;2023-02-28T07:25:57;14.90;;;11.70;;
59770;SDS011;45649;53.014;6.600;2023-02-28T07:28:24;13.67;;;11.37;;
59770;SDS011;45649;53.014;6.600;2023-02-28T07:30:50;13.40;;;11.10;;
59770;SDS011;45649;53.014;6.600;2023-02-28T07:33:16;13.23;;;11.83;;
59770;SDS011;45649;53.014;6.600;2023-02-28T07:35:42;13.13;;;11.60;;
59770;SDS011;45649;53.014;6.600;2023-02-28T07:38:09;14.67;;;11.83;;
59770;SDS011;45649;53.014;6.600;2023-02-28T07:40:35;14.57;;;11.43;;
59770;SDS011;45649;53.014;6.600;2023-02-28T07:43:01;16.33;;;11.53;;
59770;SDS011;45649;53.014;6.600;2023-02-28T07:45:28;14.83;;;11.63;;
59770;SDS011;45649;53.014;6.600;2023-02-28T07:47:54;12.37;;;10.97;;
59770;SDS011;45649;53.014;6.600;2023-02-28T07:50:20;13.17;;;11.23;;
59770;SDS011;45649;53.014;6.600;2023-02-28T07:52:47;12.33;;;11.03;;
59770;SDS011;45649;53.014;6.600;2023-02-28T07:55:13;13.10;;;10.03;;
59770;SDS011;45649;53.014;6.600;2023-02-28T07:57:39;13.07;;;10.57;;
59770;SDS011;45649;53.014;6.600;2023-02-28T08:00:08;12.87;;;10.37;;
59770;SDS011;45649;53.014;6.600;2023-02-28T08:02:34;13.23;;;10.80;;
59770;SDS011;45649;53.014;6.600;2023-02-28T08:05:01;12.20;;;10.93;;
59770;SDS011;45649;53.014;6.600;2023-02-28T08:07:27;14.17;;;11.43;;
59770;SDS011;45649;53.014;6.600;2023-02-28T08:09:53;12.73;;;11.13;;
59770;SDS011;45649;53.014;6.600;2023-02-28T08:12:19;12.17;;;10.43;;
59770;SDS011;45649;53.014;6.600;2023-02-28T08:14:45;13.13;;;11.10;;
59770;SDS011;45649;53.014;6.600;2023-02-28T08:17:11;14.10;;;11.17;;
59770;SDS011;45649;53.014;6.600;2023-02-28T08:19:37;16.20;;;11.77;;
59770;SDS011;45649;53.014;6.600;2023-02-28T08:22:04;14.00;;;11.53;;
59770;SDS011;45649;53.014;6.600;2023-02-28T08:24:30;13.17;;;11.77;;
59770;SDS011;45649;53.014;6.600;2023-02-28T08:26:56;12.63;;;11.33;;
59770;SDS011;45649;53.014;6.600;2023-02-28T08:29:22;13.97;;;11.57;;
59770;SDS011;45649;53.014;6.600;2023-02-28T08:31:48;17.07;;;11.70;;
59770;SDS011;45649;53.014;6.600;2023-02-28T08:34:15;14.53;;;11.97;;
59770;SDS011;45649;53.014;6.600;2023-02-28T08:36:41;14.83;;;12.40;;
59770;SDS011;45649;53.014;6.600;2023-02-28T08:39:09;12.87;;;11.57;;
59770;SDS011;45649;53.014;6.600;2023-02-28T08:41:36;16.47;;;12.03;;
59770;SDS011;45649;53.014;6.600;2023-02-28T08:44:02;14.07;;;12.23;;
59770;SDS011;45649;53.014;6.600;2023-02-28T08:46:28;14.60;;;11.77;;
59770;SDS011;45649;53.014;6.600;2023-02-28T08:48:55;15.43;;;11.93;;
59770;SDS011;45649;53.014;6.600;2023-02-28T08:51:24;15.40;;;11.77;;
59770;SDS011;45649;53.014;6.600;2023-02-28T08:53:54;13.87;;;12.07;;
59770;SDS011;45649;53.014;6.600;2023-02-28T08:56:20;14.37;;;11.97;;
59770;SDS011;45649;53.014;6.600;2023-02-28T08:58:47;14.07;;;12.67;;
59770;SDS011;45649;53.014;6.600;2023-02-28T09:01:21;14.07;;;12.67;;
59770;SDS011;45649;53.014;6.600;2023-02-28T09:03:48;15.03;;;12.30;;
59770;SDS011;45649;53.014;6.600;2023-02-28T09:06:15;16.63;;;12.37;;
59770;SDS011;45649;53.014;6.600;2023-02-28T09:08:41;15.47;;;13.20;;
59770;SDS011;45649;53.014;6.600;2023-02-28T09:11:08;14.07;;;12.57;;
59770;SDS011;45649;53.014;6.600;2023-02-28T09:13:34;17.03;;;12.13;;
59770;SDS011;45649;53.014;6.600;2023-02-28T09:16:01;13.23;;;11.73;;
59770;SDS011;45649;53.014;6.600;2023-02-28T09:18:28;12.43;;;11.13;;
59770;SDS011;45649;53.014;6.600;2023-02-28T09:20:54;14.10;;;11.77;;
59770;SDS011;45649;53.014;6.600;2023-02-28T09:23:20;17.67;;;12.77;;
59770;SDS011;45649;53.014;6.600;2023-02-28T09:25:47;13.07;;;11.67;;
59770;SDS011;45649;53.014;6.600;2023-02-28T09:28:14;12.37;;;11.07;;
59770;SDS011;45649;53.014;6.600;2023-02-28T09:30:47;13.50;;;12.20;;
59770;SDS011;45649;53.014;6.600;2023-02-28T09:33:13;12.70;;;11.40;;
59770;SDS011;45649;53.014;6.600;2023-02-28T09:35:40;11.40;;;10.27;;
59770;SDS011;45649;53.014;6.600;2023-02-28T09:38:06;14.23;;;12.40;;
59770;SDS011;45649;53.014;6.600;2023-02-28T09:40:35;13.20;;;10.90;;
59770;SDS011;45649;53.014;6.600;2023-02-28T09:43:01;12.53;;;10.77;;
59770;SDS011;45649;53.014;6.600;2023-02-28T09:47:54;11.37;;;9.47;;
59770;SDS011;45649;53.014;6.600;2023-02-28T09:50:30;10.43;;;9.40;;
59770;SDS011;45649;53.014;6.600;2023-02-28T09:52:58;11.73;;;9.20;;
59770;SDS011;45649;53.014;6.600;2023-02-28T09:55:29;9.90;;;8.90;;
59770;SDS011;45649;53.014;6.600;2023-02-28T09:57:56;10.43;;;9.33;;
59770;SDS011;45649;53.014;6.600;2023-02-28T10:00:43;12.50;;;9.43;;
59770;SDS011;45649;53.014;6.600;2023-02-28T10:05:43;10.33;;;9.23;;
59770;SDS011;45649;53.014;6.600;2023-02-28T10:08:16;8.63;;;7.80;;
59770;SDS011;45649;53.014;6.600;2023-02-28T10:10:44;8.23;;;7.43;;
59770;SDS011;45649;53.014;6.600;2023-02-28T10:15:58;11.70;;;7.33;;
59770;SDS011;45649;53.014;6.600;2023-02-28T10:18:27;9.17;;;6.93;;
59770;SDS011;45649;53.014;6.600;2023-02-28T10:20:56;5.97;;;5.37;;
59770;SDS011;45649;53.014;6.600;2023-02-28T10:25:52;5.80;;;5.20;;
59770;SDS011;45649;53.014;6.600;2023-02-28T10:28:19;4.83;;;4.43;;
59770;SDS011;45649;53.014;6.600;2023-02-28T10:30:49;4.27;;;3.87;;
59770;SDS011;45649;53.014;6.600;2023-02-28T10:33:21;6.43;;;4.17;;
59770;SDS011;45649;53.014;6.600;2023-02-28T10:35:47;7.40;;;5.30;;
59770;SDS011;45649;53.014;6.600;2023-02-28T10:41:03;6.33;;;4.70;;
59770;SDS011;45649;53.014;6.600;2023-02-28T10:43:29;6.27;;;4.83;;
59770;SDS011;45649;53.014;6.600;2023-02-28T10:46:00;5.80;;;5.30;;
59770;SDS011;45649;53.014;6.600;2023-02-28T10:48:29;6.13;;;5.53;;
59770;SDS011;45649;53.014;6.600;2023-02-28T10:50:56;5.67;;;5.10;;
59770;SDS011;45649;53.014;6.600;2023-02-28T10:55:59;6.50;;;5.90;;
59770;SDS011;45649;53.014;6.600;2023-02-28T10:58:30;7.40;;;6.77;;
59770;SDS011;45649;53.014;6.600;2023-02-28T11:00:56;5.97;;;5.47;;
59770;SDS011;45649;53.014;6.600;2023-02-28T11:03:29;6.33;;;5.80;;
59770;SDS011;45649;53.014;6.600;2023-02-28T11:05:55;5.63;;;5.23;;
59770;SDS011;45649;53.014;6.600;2023-02-28T11:08:21;6.73;;;6.13;;
59770;SDS011;45649;53.014;6.600;2023-02-28T11:10:56;5.67;;;5.27;;
59770;SDS011;45649;53.014;6.600;2023-02-28T11:13:33;7.00;;;5.60;;
59770;SDS011;45649;53.014;6.600;2023-02-28T11:16:04;6.37;;;5.73;;
59770;SDS011;45649;53.014;6.600;2023-02-28T11:18:47;6.67;;;6.00;;
59770;SDS011;45649;53.014;6.600;2023-02-28T11:21:27;6.33;;;5.77;;
59770;SDS011;45649;53.014;6.600;2023-02-28T11:23:56;6.10;;;5.50;;
59770;SDS011;45649;53.014;6.600;2023-02-28T11:26:44;7.37;;;6.00;;
59770;SDS011;45649;53.014;6.600;2023-02-28T11:29:12;8.13;;;5.97;;
59770;SDS011;45649;53.014;6.600;2023-02-28T11:31:38;6.53;;;5.90;;
59770;SDS011;45649;53.014;6.600;2023-02-28T11:34:21;6.83;;;5.90;;
59770;SDS011;45649;53.014;6.600;2023-02-28T11:36:48;6.53;;;6.00;;
59770;SDS011;45649;53.014;6.600;2023-02-28T11:39:14;7.07;;;5.67;;
59770;SDS011;45649;53.014;6.600;2023-02-28T11:55:11;5.87;;;5.37;;
59770;SDS011;45649;53.014;6.600;2023-02-28T12:03:01;6.63;;;5.93;;
59770;SDS011;45649;53.014;6.600;2023-02-28T12:08:40;5.50;;;5.03;;
59770;SDS011;45649;53.014;6.600;2023-02-28T12:11:11;5.90;;;5.30;;
59770;SDS011;45649;53.014;6.600;2023-02-28T12:13:43;6.27;;;5.67;;
59770;SDS011;45649;53.014;6.600;2023-02-28T12:18:57;6.27;;;5.10;;
59770;SDS011;45649;53.014;6.600;2023-02-28T12:28:54;6.47;;;5.87;;
59770;SDS011;45649;53.014;6.600;2023-02-28T12:31:24;6.30;;;5.70;;
59770;SDS011;45649;53.014;6.600;2023-02-28T12:33:52;6.73;;;6.13;;
59770;SDS011;45649;53.014;6.600;2023-02-28T12:36:20;6.70;;;6.10;;
59770;SDS011;45649;53.014;6.600;2023-02-28T12:38:58;5.43;;;4.93;;
59770;SDS011;45649;53.014;6.600;2023-02-28T12:43:55;6.43;;;5.87;;
59770;SDS011;45649;53.014;6.600;2023-02-28T12:46:24;6.53;;;5.90;;
59770;SDS011;45649;53.014;6.600;2023-02-28T12:48:58;5.10;;;4.60;;
59770;SDS011;45649;53.014;6.600;2023-02-28T12:51:26;5.80;;;5.27;;
59770;SDS011;45649;53.014;6.600;2023-02-28T12:56:53;5.77;;;5.27;;
59770;SDS011;45649;53.014;6.600;2023-02-28T12:59:16;6.53;;;5.47;;
59770;SDS011;45649;53.014;6.600;2023-02-28T13:04:35;5.70;;;5.30;;
59770;SDS011;45649;53.014;6.600;2023-02-28T13:09:38;6.10;;;5.40;;
59770;SDS011;45649;53.014;6.600;2023-02-28T13:12:12;6.47;;;5.90;;
59770;SDS011;45649;53.014;6.600;2023-02-28T13:14:39;5.53;;;5.03;;
59770;SDS011;45649;53.014;6.600;2023-02-28T13:17:10;6.37;;;4.80;;
59770;SDS011;45649;53.014;6.600;2023-02-28T13:24:54;5.60;;;5.10;;
59770;SDS011;45649;53.014;6.600;2023-02-28T13:29:50;5.80;;;5.30;;
59770;SDS011;45649;53.014;6.600;2023-02-28T13:39:45;5.93;;;5.43;;
59770;SDS011;45649;53.014;6.600;2023-02-28T13:47:30;6.73;;;6.13;;
59770;SDS011;45649;53.014;6.600;2023-02-28T13:55:27;6.10;;;5.50;;
59770;SDS011;45649;53.014;6.600;2023-02-28T14:05:44;5.90;;;5.33;;
59770;SDS011;45649;53.014;6.600;2023-02-28T14:08:15;5.37;;;4.87;;
59770;SDS011;45649;53.014;6.600;2023-02-28T14:10:46;4.90;;;4.50;;
59770;SDS011;45649;53.014;6.600;2023-02-28T14:15:59;5.77;;;4.97;;
59770;SDS011;45649;53.014;6.600;2023-02-28T14:20:53;5.10;;;4.60;;
59770;SDS011;45649;53.014;6.600;2023-02-28T14:28:21;7.07;;;5.40;;
59770;SDS011;45649;53.014;6.600;2023-02-28T14:31:04;6.70;;;4.90;;
59770;SDS011;45649;53.014;6.600;2023-02-28T14:36:07;5.30;;;4.80;;
59770;SDS011;45649;53.014;6.600;2023-02-28T14:38:40;5.70;;;5.10;;
59770;SDS011;45649;53.014;6.600;2023-02-28T14:41:12;5.23;;;4.83;;
59770;SDS011;45649;53.014;6.600;2023-02-28T16:47:10;8.40;;;7.60;;
59770;SDS011;45649;53.014;6.600;2023-02-28T16:49:36;7.67;;;7.03;;
59770;SDS011;45649;53.014;6.600;2023-02-28T16:52:03;7.40;;;6.83;;
59770;SDS011;45649;53.014;6.600;2023-02-28T16:54:30;7.73;;;7.03;;
59770;SDS011;45649;53.014;6.600;2023-02-28T16:56:56;8.37;;;6.70;;
59770;SDS011;45649;53.014;6.600;2023-02-28T16:59:23;8.20;;;7.40;;
59770;SDS011;45649;53.014;6.600;2023-02-28T17:01:50;7.23;;;6.53;;
59770;SDS011;45649;53.014;6.600;2023-02-28T17:04:16;7.90;;;7.20;;
59770;SDS011;45649;53.014;6.600;2023-02-28T17:06:42;7.10;;;6.60;;
59770;SDS011;45649;53.014;6.600;2023-02-28T17:09:18;7.10;;;6.50;;
59770;SDS011;45649;53.014;6.600;2023-02-28T17:11:46;7.57;;;6.87;;
59770;SDS011;45649;53.014;6.600;2023-02-28T17:14:12;7.70;;;7.00;;
59770;SDS011;45649;53.014;6.600;2023-02-28T17:16:38;9.07;;;7.40;;
59770;SDS011;45649;53.014;6.600;2023-02-28T17:19:06;7.70;;;7.00;;
59770;SDS011;45649;53.014;6.600;2023-02-28T17:21:36;7.63;;;6.93;;
59770;SDS011;45649;53.014;6.600;2023-02-28T17:24:02;7.60;;;6.90;;
59770;SDS011;45649;53.014;6.600;2023-02-28T17:26:27;7.17;;;6.47;;
59770;SDS011;45649;53.014;6.600;2023-02-28T17:28:54;7.57;;;6.87;;
59770;SDS011;45649;53.014;6.600;2023-02-28T17:31:22;7.03;;;6.43;;
59770;SDS011;45649;53.014;6.600;2023-02-28T17:33:48;6.80;;;6.20;;
59770;SDS011;45649;53.014;6.600;2023-02-28T17:36:15;7.73;;;6.53;;
59770;SDS011;45649;53.014;6.600;2023-02-28T17:38:42;7.60;;;7.00;;
59770;SDS011;45649;53.014;6.600;2023-02-28T17:41:13;7.20;;;6.53;;
59770;SDS011;45649;53.014;6.600;2023-02-28T17:43:38;8.50;;;7.63;;
59770;SDS011;45649;53.014;6.600;2023-02-28T17:46:05;7.23;;;6.67;;
59770;SDS011;45649;53.014;6.600;2023-02-28T17:48:39;8.27;;;7.47;;
59770;SDS011;45649;53.014;6.600;2023-02-28T17:51:05;7.23;;;6.53;;
59770;SDS011;45649;53.014;6.600;2023-02-28T17:53:30;7.73;;;7.03;;
59770;SDS011;45649;53.014;6.600;2023-02-28T17:55:56;7.67;;;7.07;;
59770;SDS011;45649;53.014;6.600;2023-02-28T17:58:22;7.97;;;7.27;;
59770;SDS011;45649;53.014;6.600;2023-02-28T18:00:47;7.47;;;6.67;;
59770;SDS011;45649;53.014;6.600;2023-02-28T18:03:18;7.80;;;7.00;;
59770;SDS011;45649;53.014;6.600;2023-02-28T18:05:45;7.17;;;6.47;;
59770;SDS011;45649;53.014;6.600;2023-02-28T18:08:11;7.83;;;7.13;;
59770;SDS011;45649;53.014;6.600;2023-02-28T18:10:38;7.17;;;6.57;;
59770;SDS011;45649;53.014;6.600;2023-02-28T18:13:04;7.90;;;7.10;;
59770;SDS011;45649;53.014;6.600;2023-02-28T18:15:30;7.30;;;6.60;;
59770;SDS011;45649;53.014;6.600;2023-02-28T18:17:56;7.80;;;7.20;;
59770;SDS011;45649;53.014;6.600;2023-02-28T18:20:21;7.57;;;6.93;;
59770;SDS011;45649;53.014;6.600;2023-02-28T18:22:47;7.47;;;6.87;;
59770;SDS011;45649;53.014;6.600;2023-02-28T18:25:13;8.43;;;7.17;;
59770;SDS011;45649;53.014;6.600;2023-02-28T18:27:40;8.93;;;7.40;;
59770;SDS011;45649;53.014;6.600;2023-02-28T18:30:18;8.50;;;7.70;;
59770;SDS011;45649;53.014;6.600;2023-02-28T18:32:45;8.80;;;8.00;;
59770;SDS011;45649;53.014;6.600;2023-02-28T18:35:11;8.50;;;7.70;;
59770;SDS011;45649;53.014;6.600;2023-02-28T18:37:36;8.33;;;7.60;;
59770;SDS011;45649;53.014;6.600;2023-02-28T18:40:02;8.33;;;7.63;;
59770;SDS011;45649;53.014;6.600;2023-02-28T18:42:29;7.30;;;6.70;;
59770;SDS011;45649;53.014;6.600;2023-02-28T18:44:54;8.53;;;7.63;;
59770;SDS011;45649;53.014;6.600;2023-02-28T18:47:20;7.93;;;7.17;;
59770;SDS011;45649;53.014;6.600;2023-02-28T18:49:46;8.00;;;7.30;;
59770;SDS011;45649;53.014;6.600;2023-02-28T18:52:12;8.33;;;7.53;;
59770;SDS011;45649;53.014;6.600;2023-02-28T18:54:37;8.73;;;7.90;;
59770;SDS011;45649;53.014;6.600;2023-02-28T18:57:03;8.37;;;7.57;;
59770;SDS011;45649;53.014;6.600;2023-02-28T18:59:29;8.50;;;7.70;;
59770;SDS011;45649;53.014;6.600;2023-02-28T19:01:55;8.80;;;7.77;;
59770;SDS011;45649;53.014;6.600;2023-02-28T19:04:22;9.20;;;8.40;;
59770;SDS011;45649;53.014;6.600;2023-02-28T19:06:48;8.90;;;8.10;;
59770;SDS011;45649;53.014;6.600;2023-02-28T19:09:14;10.10;;;9.20;;
59770;SDS011;45649;53.014;6.600;2023-02-28T19:11:40;8.80;;;7.90;;
59770;SDS011;45649;53.014;6.600;2023-02-28T19:14:06;8.53;;;7.83;;